Terminal Aerodrome Forecast
Issued by NWS

Home | Current Version | Previous Version | Text Only | Print | Product List | Glossary On
Versions: 1 2 3 4 5 6 7 8 9 10 11 12 13 14 15 16 17 18 19 20 21 22 23 24 25 26 27
000
FTUS44 KHGX 041740
TAFLBX
TAF
KLBX 041740Z 0418/0518 13006KT P6SM FEW045 SCT050 BKN080
     FM042100 12012G18KT P6SM FEW050
     FM050200 12008KT P6SM SCT030
     FM051000 13010KT P6SM VCSH SCT015 PROB30 0511/0515 RA BKN020
     FM051600 13014KT P6SM VCTS SCT025 BKN035CB=

USA.gov is the U.S. government's official web portal to all federal, state and local government web resources and services.